sensor_id;sensor_type;location;lat;lon;timestamp;pressure;altitude;pressure_sealevel;temperature;humidity
56604;BME280;42486;47.478;19.036;2023-03-14T00:02:08;99472.09;;;6.42;68.77
56604;BME280;42486;47.478;19.036;2023-03-14T00:05:13;99477.72;;;6.36;68.46
56604;BME280;42486;47.478;19.036;2023-03-14T00:08:17;99470.03;;;6.34;68.77
56604;BME280;42486;47.478;19.036;2023-03-14T00:11:21;99461.66;;;6.31;68.90
56604;BME280;42486;47.478;19.036;2023-03-14T00:14:24;99462.69;;;6.28;69.00
56604;BME280;42486;47.478;19.036;2023-03-14T00:17:29;99452.94;;;6.32;69.36
56604;BME280;42486;47.478;19.036;2023-03-14T00:20:33;99449.19;;;6.36;69.78
56604;BME280;42486;47.478;19.036;2023-03-14T00:23:37;99448.16;;;6.38;70.35
56604;BME280;42486;47.478;19.036;2023-03-14T00:26:41;99445.56;;;6.38;69.73
56604;BME280;42486;47.478;19.036;2023-03-14T00:29:44;99435.97;;;6.52;68.58
56604;BME280;42486;47.478;19.036;2023-03-14T00:32:48;99440.94;;;6.55;69.68
56604;BME280;42486;47.478;19.036;2023-03-14T00:35:52;99427.13;;;6.54;72.19
56604;BME280;42486;47.478;19.036;2023-03-14T00:38:56;99416.66;;;6.43;70.20
56604;BME280;42486;47.478;19.036;2023-03-14T00:41:59;99411.97;;;6.48;69.93
56604;BME280;42486;47.478;19.036;2023-03-14T00:45:03;99415.63;;;6.46;70.50
56604;BME280;42486;47.478;19.036;2023-03-14T00:48:07;99413.31;;;6.54;70.48
56604;BME280;42486;47.478;19.036;2023-03-14T00:51:11;99406.19;;;6.45;70.53
56604;BME280;42486;47.478;19.036;2023-03-14T00:54:16;99410.78;;;6.41;70.97
56604;BME280;42486;47.478;19.036;2023-03-14T00:57:21;99397.41;;;6.34;70.33
56604;BME280;42486;47.478;19.036;2023-03-14T01:00:25;99400.22;;;6.31;70.39
56604;BME280;42486;47.478;19.036;2023-03-14T01:03:28;99393.03;;;6.35;70.89
56604;BME280;42486;47.478;19.036;2023-03-14T01:06:33;99386.94;;;6.36;71.03
56604;BME280;42486;47.478;19.036;2023-03-14T01:09:37;99393.66;;;6.38;71.69
56604;BME280;42486;47.478;19.036;2023-03-14T01:12:40;99391.41;;;6.34;71.73
56604;BME280;42486;47.478;19.036;2023-03-14T01:15:45;99385.97;;;6.37;72.54
56604;BME280;42486;47.478;19.036;2023-03-14T01:18:49;99383.22;;;6.27;72.21
56604;BME280;42486;47.478;19.036;2023-03-14T01:21:53;99380.12;;;6.22;72.74
56604;BME280;42486;47.478;19.036;2023-03-14T01:24:58;99373.88;;;6.25;72.37
56604;BME280;42486;47.478;19.036;2023-03-14T01:28:03;99369.75;;;6.22;74.07
56604;BME280;42486;47.478;19.036;2023-03-14T01:31:09;99364.69;;;6.21;72.15
56604;BME280;42486;47.478;19.036;2023-03-14T01:34:12;99352.84;;;6.40;71.48
56604;BME280;42486;47.478;19.036;2023-03-14T01:37:17;99322.87;;;6.60;70.37
56604;BME280;42486;47.478;19.036;2023-03-14T01:40:21;99323.94;;;6.69;69.27
56604;BME280;42486;47.478;19.036;2023-03-14T01:43:25;99321.59;;;6.66;68.83
56604;BME280;42486;47.478;19.036;2023-03-14T01:46:34;99329.22;;;6.56;69.22
56604;BME280;42486;47.478;19.036;2023-03-14T01:49:40;99324.25;;;6.53;69.73
56604;BME280;42486;47.478;19.036;2023-03-14T01:52:48;99312.66;;;6.46;69.45
56604;BME280;42486;47.478;19.036;2023-03-14T01:55:54;99296.41;;;6.44;70.83
56604;BME280;42486;47.478;19.036;2023-03-14T01:59:03;99290.84;;;6.49;70.35
56604;BME280;42486;47.478;19.036;2023-03-14T02:02:09;99300.47;;;6.35;70.92
56604;BME280;42486;47.478;19.036;2023-03-14T02:05:16;99288.44;;;6.23;71.17
56604;BME280;42486;47.478;19.036;2023-03-14T02:08:20;99301.00;;;6.16;71.97
56604;BME280;42486;47.478;19.036;2023-03-14T02:11:26;99281.28;;;6.14;72.67
56604;BME280;42486;47.478;19.036;2023-03-14T02:14:34;99285.28;;;6.07;72.81
56604;BME280;42486;47.478;19.036;2023-03-14T02:17:38;99276.37;;;5.98;74.29
56604;BME280;42486;47.478;19.036;2023-03-14T02:24:09;99269.06;;;5.79;75.73
56604;BME280;42486;47.478;19.036;2023-03-14T02:27:14;99256.06;;;5.68;76.70
56604;BME280;42486;47.478;19.036;2023-03-14T02:30:19;99247.91;;;5.61;76.40
56604;BME280;42486;47.478;19.036;2023-03-14T02:33:22;99240.84;;;5.63;77.08
56604;BME280;42486;47.478;19.036;2023-03-14T02:36:25;99239.19;;;5.62;77.16
56604;BME280;42486;47.478;19.036;2023-03-14T02:39:33;99227.19;;;5.61;77.81
56604;BME280;42486;47.478;19.036;2023-03-14T02:42:38;99227.38;;;5.58;77.39
56604;BME280;42486;47.478;19.036;2023-03-14T02:45:44;99225.81;;;5.56;78.59
56604;BME280;42486;47.478;19.036;2023-03-14T02:48:52;99221.50;;;5.56;78.68
56604;BME280;42486;47.478;19.036;2023-03-14T02:51:57;99220.00;;;5.65;78.70
56604;BME280;42486;47.478;19.036;2023-03-14T02:55:01;99223.81;;;5.72;78.30
56604;BME280;42486;47.478;19.036;2023-03-14T02:58:04;99224.09;;;5.80;79.02
56604;BME280;42486;47.478;19.036;2023-03-14T03:01:09;99206.44;;;5.85;78.30
56604;BME280;42486;47.478;19.036;2023-03-14T03:04:13;99209.94;;;5.97;78.70
56604;BME280;42486;47.478;19.036;2023-03-14T03:07:16;99197.62;;;6.12;78.66
56604;BME280;42486;47.478;19.036;2023-03-14T03:10:20;99202.03;;;6.23;77.06
56604;BME280;42486;47.478;19.036;2023-03-14T03:13:23;99198.97;;;6.40;76.06
56604;BME280;42486;47.478;19.036;2023-03-14T03:16:27;99200.41;;;6.44;77.47
56604;BME280;42486;47.478;19.036;2023-03-14T03:19:33;99200.91;;;6.49;76.33
56604;BME280;42486;47.478;19.036;2023-03-14T03:22:37;99195.81;;;6.48;75.83
56604;BME280;42486;47.478;19.036;2023-03-14T03:25:47;99197.59;;;6.47;76.02
56604;BME280;42486;47.478;19.036;2023-03-14T03:28:51;99191.34;;;6.50;76.79
56604;BME280;42486;47.478;19.036;2023-03-14T03:31:56;99181.78;;;6.50;76.66
56604;BME280;42486;47.478;19.036;2023-03-14T03:35:01;99180.22;;;6.36;77.37
56604;BME280;42486;47.478;19.036;2023-03-14T03:38:09;99180.09;;;6.27;77.30
56604;BME280;42486;47.478;19.036;2023-03-14T03:41:13;99166.41;;;6.25;77.84
56604;BME280;42486;47.478;19.036;2023-03-14T03:44:20;99156.34;;;6.09;78.58
56604;BME280;42486;47.478;19.036;2023-03-14T03:47:24;99165.41;;;6.03;79.81
56604;BME280;42486;47.478;19.036;2023-03-14T03:50:28;99168.84;;;6.04;79.59
56604;BME280;42486;47.478;19.036;2023-03-14T03:53:33;99157.75;;;6.02;81.48
56604;BME280;42486;47.478;19.036;2023-03-14T03:56:36;99159.81;;;5.85;80.88
56604;BME280;42486;47.478;19.036;2023-03-14T03:59:40;99166.12;;;5.81;82.27
56604;BME280;42486;47.478;19.036;2023-03-14T04:02:44;99163.59;;;5.68;83.20
56604;BME280;42486;47.478;19.036;2023-03-14T04:06:02;99165.09;;;5.60;84.58
56604;BME280;42486;47.478;19.036;2023-03-14T04:09:07;99162.34;;;5.50;85.89
56604;BME280;42486;47.478;19.036;2023-03-14T04:12:10;99164.31;;;5.46;85.84
56604;BME280;42486;47.478;19.036;2023-03-14T04:15:15;99156.91;;;5.29;86.78
56604;BME280;42486;47.478;19.036;2023-03-14T04:18:18;99154.63;;;5.37;85.72
56604;BME280;42486;47.478;19.036;2023-03-14T04:21:21;99145.69;;;5.17;88.41
56604;BME280;42486;47.478;19.036;2023-03-14T04:24:24;99133.47;;;5.19;90.53
56604;BME280;42486;47.478;19.036;2023-03-14T04:27:29;99135.28;;;5.30;88.52
56604;BME280;42486;47.478;19.036;2023-03-14T04:30:36;99139.53;;;5.31;87.59
56604;BME280;42486;47.478;19.036;2023-03-14T04:33:39;99137.97;;;5.28;88.63
56604;BME280;42486;47.478;19.036;2023-03-14T04:36:45;99149.06;;;5.30;88.51
56604;BME280;42486;47.478;19.036;2023-03-14T04:39:51;99147.06;;;5.34;88.23
56604;BME280;42486;47.478;19.036;2023-03-14T04:42:57;99152.16;;;5.36;88.22
56604;BME280;42486;47.478;19.036;2023-03-14T04:46:02;99143.28;;;5.27;88.35
56604;BME280;42486;47.478;19.036;2023-03-14T04:49:06;99145.75;;;5.28;88.20
56604;BME280;42486;47.478;19.036;2023-03-14T04:52:10;99152.31;;;5.45;87.06
56604;BME280;42486;47.478;19.036;2023-03-14T04:55:14;99150.66;;;5.44;87.37
56604;BME280;42486;47.478;19.036;2023-03-14T04:58:18;99158.38;;;5.57;87.63
56604;BME280;42486;47.478;19.036;2023-03-14T05:01:23;99152.25;;;5.58;86.22
56604;BME280;42486;47.478;19.036;2023-03-14T05:04:29;99146.75;;;5.63;86.02
56604;BME280;42486;47.478;19.036;2023-03-14T05:07:36;99135.09;;;5.68;85.71
56604;BME280;42486;47.478;19.036;2023-03-14T05:10:41;99141.75;;;5.84;84.76
56604;BME280;42486;47.478;19.036;2023-03-14T05:13:44;99141.28;;;5.90;85.21
56604;BME280;42486;47.478;19.036;2023-03-14T05:16:49;99135.81;;;5.94;85.01
56604;BME280;42486;47.478;19.036;2023-03-14T05:19:52;99139.34;;;5.93;85.56
56604;BME280;42486;47.478;19.036;2023-03-14T05:22:57;99134.19;;;6.05;85.09
56604;BME280;42486;47.478;19.036;2023-03-14T05:26:03;99127.25;;;6.16;84.17
56604;BME280;42486;47.478;19.036;2023-03-14T05:29:07;99127.75;;;6.33;83.58
56604;BME280;42486;47.478;19.036;2023-03-14T05:32:09;99121.53;;;6.47;82.08
56604;BME280;42486;47.478;19.036;2023-03-14T05:35:12;99115.41;;;6.70;79.44
56604;BME280;42486;47.478;19.036;2023-03-14T05:38:17;99110.75;;;6.96;77.70
56604;BME280;42486;47.478;19.036;2023-03-14T05:41:22;99117.56;;;7.09;77.20
56604;BME280;42486;47.478;19.036;2023-03-14T05:44:26;99125.50;;;7.39;74.51
56604;BME280;42486;47.478;19.036;2023-03-14T05:47:30;99125.00;;;7.57;73.67
56604;BME280;42486;47.478;19.036;2023-03-14T05:50:35;99134.97;;;7.72;73.98
56604;BME280;42486;47.478;19.036;2023-03-14T05:53:41;99135.25;;;7.90;73.58
56604;BME280;42486;47.478;19.036;2023-03-14T05:56:45;99136.06;;;8.12;70.80
56604;BME280;42486;47.478;19.036;2023-03-14T05:59:48;99131.41;;;8.36;69.80
56604;BME280;42486;47.478;19.036;2023-03-14T06:02:51;99133.53;;;8.73;67.87
56604;BME280;42486;47.478;19.036;2023-03-14T06:05:55;99137.91;;;9.13;65.57
56604;BME280;42486;47.478;19.036;2023-03-14T06:08:58;99139.59;;;10.11;62.82
56604;BME280;42486;47.478;19.036;2023-03-14T06:12:03;99137.47;;;11.90;56.02
56604;BME280;42486;47.478;19.036;2023-03-14T06:15:08;99136.38;;;13.22;50.06
56604;BME280;42486;47.478;19.036;2023-03-14T06:18:13;99138.16;;;13.88;47.06
56604;BME280;42486;47.478;19.036;2023-03-14T06:21:18;99138.97;;;13.89;46.20
56604;BME280;42486;47.478;19.036;2023-03-14T06:24:23;99145.00;;;14.94;43.75
56604;BME280;42486;47.478;19.036;2023-03-14T06:27:27;99143.44;;;15.16;42.72
56604;BME280;42486;47.478;19.036;2023-03-14T06:30:31;99139.63;;;14.88;42.73
56604;BME280;42486;47.478;19.036;2023-03-14T06:33:34;99144.53;;;14.02;45.10
56604;BME280;42486;47.478;19.036;2023-03-14T06:36:44;99138.38;;;12.51;49.01
56604;BME280;42486;47.478;19.036;2023-03-14T06:39:49;99130.38;;;11.47;52.06
56604;BME280;42486;47.478;19.036;2023-03-14T06:42:54;99128.62;;;10.92;54.60
56604;BME280;42486;47.478;19.036;2023-03-14T06:45:58;99133.56;;;10.95;55.38
56604;BME280;42486;47.478;19.036;2023-03-14T06:49:07;99137.63;;;10.80;56.43
56604;BME280;42486;47.478;19.036;2023-03-14T06:52:13;99136.78;;;10.79;56.12
56604;BME280;42486;47.478;19.036;2023-03-14T06:55:17;99137.38;;;10.73;56.17
56604;BME280;42486;47.478;19.036;2023-03-14T06:58:23;99130.97;;;10.58;56.21
56604;BME280;42486;47.478;19.036;2023-03-14T07:01:28;99137.66;;;10.70;56.74
56604;BME280;42486;47.478;19.036;2023-03-14T07:04:33;99142.69;;;10.82;57.39
56604;BME280;42486;47.478;19.036;2023-03-14T07:07:37;99137.28;;;10.93;56.60
56604;BME280;42486;47.478;19.036;2023-03-14T07:10:42;99144.31;;;10.92;57.31
56604;BME280;42486;47.478;19.036;2023-03-14T07:13:46;99133.94;;;11.00;56.53
56604;BME280;42486;47.478;19.036;2023-03-14T07:16:50;99136.16;;;11.23;56.07
56604;BME280;42486;47.478;19.036;2023-03-14T07:19:55;99134.09;;;11.44;54.77
56604;BME280;42486;47.478;19.036;2023-03-14T07:22:58;99132.53;;;11.52;54.13
56604;BME280;42486;47.478;19.036;2023-03-14T07:26:06;99134.19;;;11.71;55.20
56604;BME280;42486;47.478;19.036;2023-03-14T07:29:10;99129.38;;;11.84;54.43
56604;BME280;42486;47.478;19.036;2023-03-14T07:32:16;99136.94;;;12.05;54.83
56604;BME280;42486;47.478;19.036;2023-03-14T07:35:20;99127.34;;;12.14;53.97
56604;BME280;42486;47.478;19.036;2023-03-14T07:38:23;99124.69;;;12.31;53.64
56604;BME280;42486;47.478;19.036;2023-03-14T07:41:27;99115.78;;;12.50;52.88
56604;BME280;42486;47.478;19.036;2023-03-14T07:44:32;99107.25;;;12.83;52.12
56604;BME280;42486;47.478;19.036;2023-03-14T07:47:37;99108.72;;;12.85;51.48
56604;BME280;42486;47.478;19.036;2023-03-14T07:50:42;99105.34;;;13.01;52.64
56604;BME280;42486;47.478;19.036;2023-03-14T07:53:46;99101.44;;;13.13;51.95
56604;BME280;42486;47.478;19.036;2023-03-14T07:56:50;99104.72;;;13.15;51.43
56604;BME280;42486;47.478;19.036;2023-03-14T07:59:54;99101.28;;;13.23;51.57
56604;BME280;42486;47.478;19.036;2023-03-14T08:02:59;99089.19;;;13.22;51.12
56604;BME280;42486;47.478;19.036;2023-03-14T08:06:04;99083.97;;;13.30;51.17
56604;BME280;42486;47.478;19.036;2023-03-14T08:09:07;99083.50;;;13.68;51.59
56604;BME280;42486;47.478;19.036;2023-03-14T08:12:11;99088.41;;;13.79;50.61
56604;BME280;42486;47.478;19.036;2023-03-14T08:15:15;99070.53;;;13.74;50.37
56604;BME280;42486;47.478;19.036;2023-03-14T08:18:18;99068.72;;;13.91;49.42
56604;BME280;42486;47.478;19.036;2023-03-14T08:21:22;99062.47;;;14.00;49.24
56604;BME280;42486;47.478;19.036;2023-03-14T08:24:26;99054.59;;;14.00;50.80
56604;BME280;42486;47.478;19.036;2023-03-14T08:27:29;99066.06;;;14.07;49.39
56604;BME280;42486;47.478;19.036;2023-03-14T08:30:33;99068.03;;;14.14;50.29
56604;BME280;42486;47.478;19.036;2023-03-14T08:33:37;99054.31;;;14.43;49.82
56604;BME280;42486;47.478;19.036;2023-03-14T08:36:42;99044.84;;;14.73;48.01
56604;BME280;42486;47.478;19.036;2023-03-14T08:39:47;99047.00;;;15.01;48.67
56604;BME280;42486;47.478;19.036;2023-03-14T08:42:51;99058.25;;;15.40;46.64
56604;BME280;42486;47.478;19.036;2023-03-14T08:45:59;99045.41;;;15.60;47.71
56604;BME280;42486;47.478;19.036;2023-03-14T08:49:03;99045.91;;;15.41;45.95
56604;BME280;42486;47.478;19.036;2023-03-14T08:52:08;99035.63;;;15.31;46.47
56604;BME280;42486;47.478;19.036;2023-03-14T08:55:13;99043.56;;;15.46;47.38
56604;BME280;42486;47.478;19.036;2023-03-14T08:58:18;99036.97;;;15.27;46.98
56604;BME280;42486;47.478;19.036;2023-03-14T09:01:23;99028.13;;;14.97;47.41
56604;BME280;42486;47.478;19.036;2023-03-14T09:04:28;99021.22;;;14.96;47.55
56604;BME280;42486;47.478;19.036;2023-03-14T09:07:31;99017.78;;;14.95;47.91
56604;BME280;42486;47.478;19.036;2023-03-14T09:10:35;99019.41;;;14.96;47.76
56604;BME280;42486;47.478;19.036;2023-03-14T09:13:38;99018.13;;;15.15;48.05
56604;BME280;42486;47.478;19.036;2023-03-14T09:16:42;99015.78;;;15.44;47.11
56604;BME280;42486;47.478;19.036;2023-03-14T09:19:45;99006.12;;;15.59;46.07
56604;BME280;42486;47.478;19.036;2023-03-14T09:22:50;99001.72;;;15.74;46.23
56604;BME280;42486;47.478;19.036;2023-03-14T09:25:55;99005.78;;;15.77;45.10
56604;BME280;42486;47.478;19.036;2023-03-14T09:28:59;98993.56;;;15.69;46.37
56604;BME280;42486;47.478;19.036;2023-03-14T09:32:03;98990.13;;;15.46;45.81
56604;BME280;42486;47.478;19.036;2023-03-14T09:35:08;98973.00;;;15.64;46.18
56604;BME280;42486;47.478;19.036;2023-03-14T09:38:12;98973.22;;;15.78;46.02
56604;BME280;42486;47.478;19.036;2023-03-14T09:41:27;98953.69;;;15.72;46.15
56604;BME280;42486;47.478;19.036;2023-03-14T09:44:32;98964.59;;;15.84;45.43
56604;BME280;42486;47.478;19.036;2023-03-14T09:47:36;98955.69;;;16.15;44.81
56604;BME280;42486;47.478;19.036;2023-03-14T09:50:54;98950.81;;;16.48;44.91
56604;BME280;42486;47.478;19.036;2023-03-14T09:53:58;98949.09;;;16.77;45.15
56604;BME280;42486;47.478;19.036;2023-03-14T09:57:04;98939.19;;;16.79;44.16
56604;BME280;42486;47.478;19.036;2023-03-14T10:00:19;98938.31;;;16.93;43.63
56604;BME280;42486;47.478;19.036;2023-03-14T10:03:31;98937.56;;;16.99;45.01
56604;BME280;42486;47.478;19.036;2023-03-14T10:06:36;98941.19;;;17.20;44.46
56604;BME280;42486;47.478;19.036;2023-03-14T10:09:38;98917.16;;;17.36;43.71
56604;BME280;42486;47.478;19.036;2023-03-14T10:12:41;98904.84;;;17.50;43.83
56604;BME280;42486;47.478;19.036;2023-03-14T10:15:51;98893.09;;;17.87;43.61
56604;BME280;42486;47.478;19.036;2023-03-14T10:19:01;98902.84;;;18.28;42.03
56604;BME280;42486;47.478;19.036;2023-03-14T10:22:05;98911.28;;;18.65;40.49
56604;BME280;42486;47.478;19.036;2023-03-14T10:25:19;98896.06;;;19.00;39.64
56604;BME280;42486;47.478;19.036;2023-03-14T10:28:32;98885.28;;;19.28;37.86
56604;BME280;42486;47.478;19.036;2023-03-14T10:31:47;98907.84;;;19.57;39.29
56604;BME280;42486;47.478;19.036;2023-03-14T10:35:06;98885.22;;;19.48;38.45
56604;BME280;42486;47.478;19.036;2023-03-14T10:38:13;98869.16;;;19.50;37.15
56604;BME280;42486;47.478;19.036;2023-03-14T10:41:18;98872.41;;;19.39;37.42
56604;BME280;42486;47.478;19.036;2023-03-14T10:44:24;98873.22;;;19.32;37.25
56604;BME280;42486;47.478;19.036;2023-03-14T10:47:32;98863.03;;;19.36;37.29
56604;BME280;42486;47.478;19.036;2023-03-14T10:50:36;98864.00;;;19.62;37.11
56604;BME280;42486;47.478;19.036;2023-03-14T10:53:59;98849.16;;;19.54;37.51
56604;BME280;42486;47.478;19.036;2023-03-14T10:57:05;98846.88;;;19.64;37.04
56604;BME280;42486;47.478;19.036;2023-03-14T11:00:15;98843.78;;;19.87;36.65
56604;BME280;42486;47.478;19.036;2023-03-14T11:03:20;98838.84;;;19.91;36.20
56604;BME280;42486;47.478;19.036;2023-03-14T11:06:48;98838.06;;;19.90;36.19
56604;BME280;42486;47.478;19.036;2023-03-14T11:16:33;98820.56;;;19.63;37.58
56604;BME280;42486;47.478;19.036;2023-03-14T11:29:39;98781.25;;;20.11;37.05
56604;BME280;42486;47.478;19.036;2023-03-14T11:32:59;98794.22;;;19.88;36.97
56604;BME280;42486;47.478;19.036;2023-03-14T11:36:07;98785.75;;;19.59;37.10
56604;BME280;42486;47.478;19.036;2023-03-14T11:39:18;98786.16;;;19.56;37.54
56604;BME280;42486;47.478;19.036;2023-03-14T11:42:21;98782.53;;;19.44;37.82
56604;BME280;42486;47.478;19.036;2023-03-14T11:45:31;98776.47;;;19.36;37.42
56604;BME280;42486;47.478;19.036;2023-03-14T11:48:45;98786.38;;;19.54;38.03
56604;BME280;42486;47.478;19.036;2023-03-14T11:51:55;98785.59;;;19.99;37.61
56604;BME280;42486;47.478;19.036;2023-03-14T11:55:06;98778.50;;;20.24;37.21
56604;BME280;42486;47.478;19.036;2023-03-14T11:58:15;98761.66;;;20.12;36.46
56604;BME280;42486;47.478;19.036;2023-03-14T12:01:23;98765.72;;;20.15;35.54
56604;BME280;42486;47.478;19.036;2023-03-14T12:04:41;98749.69;;;20.35;36.01
56604;BME280;42486;47.478;19.036;2023-03-14T12:08:03;98753.63;;;20.76;36.04
56604;BME280;42486;47.478;19.036;2023-03-14T12:14:44;98741.00;;;20.71;35.25
56604;BME280;42486;47.478;19.036;2023-03-14T12:17:54;98748.12;;;20.77;35.01
56604;BME280;42486;47.478;19.036;2023-03-14T12:21:02;98742.56;;;21.04;34.35
56604;BME280;42486;47.478;19.036;2023-03-14T12:24:14;98741.38;;;21.18;34.07
56604;BME280;42486;47.478;19.036;2023-03-14T12:30:44;98733.47;;;20.93;35.10
56604;BME280;42486;47.478;19.036;2023-03-14T12:33:48;98726.19;;;20.63;35.09
56604;BME280;42486;47.478;19.036;2023-03-14T12:37:17;98720.09;;;20.31;35.74
56604;BME280;42486;47.478;19.036;2023-03-14T12:40:25;98718.72;;;20.54;36.39
56604;BME280;42486;47.478;19.036;2023-03-14T12:43:34;98722.53;;;20.83;36.24
56604;BME280;42486;47.478;19.036;2023-03-14T12:46:37;98718.31;;;20.50;36.33
56604;BME280;42486;47.478;19.036;2023-03-14T12:49:41;98709.00;;;20.16;36.12
56604;BME280;42486;47.478;19.036;2023-03-14T12:59:29;98685.31;;;19.57;37.20
56604;BME280;42486;47.478;19.036;2023-03-14T13:02:38;98686.59;;;19.42;37.66
56604;BME280;42486;47.478;19.036;2023-03-14T13:05:51;98681.94;;;19.30;37.35
56604;BME280;42486;47.478;19.036;2023-03-14T13:08:54;98677.38;;;19.06;38.00
56604;BME280;42486;47.478;19.036;2023-03-14T13:12:17;98677.22;;;18.94;38.80
56604;BME280;42486;47.478;19.036;2023-03-14T13:15:29;98678.88;;;18.82;38.73
56604;BME280;42486;47.478;19.036;2023-03-14T13:18:37;98664.41;;;18.71;38.56
56604;BME280;42486;47.478;19.036;2023-03-14T13:21:40;98665.84;;;18.60;39.00
56604;BME280;42486;47.478;19.036;2023-03-14T13:24:45;98667.69;;;18.60;38.95
56604;BME280;42486;47.478;19.036;2023-03-14T13:27:51;98667.69;;;18.53;39.04
56604;BME280;42486;47.478;19.036;2023-03-14T13:31:01;98667.72;;;18.40;38.92
56604;BME280;42486;47.478;19.036;2023-03-14T13:34:09;98670.38;;;18.33;39.37
56604;BME280;42486;47.478;19.036;2023-03-14T13:37:17;98667.13;;;18.11;39.92
56604;BME280;42486;47.478;19.036;2023-03-14T13:40:39;98669.56;;;18.06;40.71
56604;BME280;42486;47.478;19.036;2023-03-14T13:43:45;98681.56;;;18.09;40.80
56604;BME280;42486;47.478;19.036;2023-03-14T13:46:49;98674.03;;;18.05;41.06
56604;BME280;42486;47.478;19.036;2023-03-14T13:49:52;98680.34;;;18.04;41.00
56604;BME280;42486;47.478;19.036;2023-03-14T13:52:56;98670.97;;;18.02;41.72
56604;BME280;42486;47.478;19.036;2023-03-14T13:56:03;98675.22;;;18.03;41.61
56604;BME280;42486;47.478;19.036;2023-03-14T13:59:22;98676.25;;;18.02;42.43
56604;BME280;42486;47.478;19.036;2023-03-14T14:02:25;98675.66;;;18.00;41.23
56604;BME280;42486;47.478;19.036;2023-03-14T14:05:30;98675.66;;;18.00;41.21
56604;BME280;42486;47.478;19.036;2023-03-14T14:08:34;98683.78;;;18.05;41.32
56604;BME280;42486;47.478;19.036;2023-03-14T14:11:42;98681.34;;;18.10;39.87
56604;BME280;42486;47.478;19.036;2023-03-14T14:15:15;98665.50;;;18.10;39.71
56604;BME280;42486;47.478;19.036;2023-03-14T14:18:22;98668.13;;;18.23;39.93
56604;BME280;42486;47.478;19.036;2023-03-14T14:21:26;98659.19;;;18.31;40.03
56604;BME280;42486;47.478;19.036;2023-03-14T14:24:31;98655.72;;;18.31;40.38
56604;BME280;42486;47.478;19.036;2023-03-14T14:27:36;98666.09;;;18.32;40.77
56604;BME280;42486;47.478;19.036;2023-03-14T14:30:42;98666.50;;;18.36;40.36
56604;BME280;42486;47.478;19.036;2023-03-14T14:36:51;98663.25;;;18.34;40.20
56604;BME280;42486;47.478;19.036;2023-03-14T14:39:59;98648.81;;;18.36;39.84
56604;BME280;42486;47.478;19.036;2023-03-14T14:43:04;98652.47;;;18.35;41.74
56604;BME280;42486;47.478;19.036;2023-03-14T14:46:08;98654.28;;;18.48;41.02
56604;BME280;42486;47.478;19.036;2023-03-14T14:49:14;98650.22;;;18.39;40.20
56604;BME280;42486;47.478;19.036;2023-03-14T14:52:19;98654.09;;;18.36;40.57
56604;BME280;42486;47.478;19.036;2023-03-14T14:55:28;98645.53;;;18.34;40.30
56604;BME280;42486;47.478;19.036;2023-03-14T14:58:36;98644.75;;;18.34;41.18
56604;BME280;42486;47.478;19.036;2023-03-14T15:01:43;98644.53;;;18.35;40.41
56604;BME280;42486;47.478;19.036;2023-03-14T15:04:46;98647.38;;;18.27;39.90
56604;BME280;42486;47.478;19.036;2023-03-14T15:07:50;98645.56;;;18.21;41.35
56604;BME280;42486;47.478;19.036;2023-03-14T15:10:54;98651.66;;;18.15;41.33
56604;BME280;42486;47.478;19.036;2023-03-14T15:13:57;98648.62;;;18.11;42.61
56604;BME280;42486;47.478;19.036;2023-03-14T15:17:00;98649.41;;;17.92;42.54
56604;BME280;42486;47.478;19.036;2023-03-14T15:20:05;98657.94;;;17.80;43.09
56604;BME280;42486;47.478;19.036;2023-03-14T15:23:13;98667.44;;;17.68;42.96
56604;BME280;42486;47.478;19.036;2023-03-14T15:26:21;98666.38;;;17.49;42.12
56604;BME280;42486;47.478;19.036;2023-03-14T15:29:24;98668.81;;;17.44;42.77
56604;BME280;42486;47.478;19.036;2023-03-14T15:32:30;98668.78;;;17.37;42.14
56604;BME280;42486;47.478;19.036;2023-03-14T15:35:38;98669.56;;;17.25;43.09
56604;BME280;42486;47.478;19.036;2023-03-14T15:38:41;98674.97;;;17.10;42.62
56604;BME280;42486;47.478;19.036;2023-03-14T15:41:44;98676.56;;;16.98;43.16
56604;BME280;42486;47.478;19.036;2023-03-14T15:44:47;98679.53;;;16.81;43.27
56604;BME280;42486;47.478;19.036;2023-03-14T15:47:50;98685.78;;;16.80;43.58
56604;BME280;42486;47.478;19.036;2023-03-14T15:50:53;98710.28;;;16.74;43.06
56604;BME280;42486;47.478;19.036;2023-03-14T15:53:57;98735.19;;;16.65;45.17
56604;BME280;42486;47.478;19.036;2023-03-14T15:57:01;98745.56;;;16.45;51.14
56604;BME280;42486;47.478;19.036;2023-03-14T16:00:05;98743.69;;;15.96;60.00
56604;BME280;42486;47.478;19.036;2023-03-14T16:03:18;98748.56;;;15.62;66.03
56604;BME280;42486;47.478;19.036;2023-03-14T16:06:22;98736.47;;;15.02;73.22
56604;BME280;42486;47.478;19.036;2023-03-14T16:09:25;98748.22;;;14.62;79.01
56604;BME280;42486;47.478;19.036;2023-03-14T16:12:29;98738.69;;;14.23;83.25
56604;BME280;42486;47.478;19.036;2023-03-14T16:15:33;98734.75;;;13.96;88.05
56604;BME280;42486;47.478;19.036;2023-03-14T16:18:38;98732.16;;;13.64;93.21
56604;BME280;42486;47.478;19.036;2023-03-14T16:21:42;98730.69;;;13.22;98.02
56604;BME280;42486;47.478;19.036;2023-03-14T16:24:45;98725.03;;;12.94;99.31
56604;BME280;42486;47.478;19.036;2023-03-14T16:27:48;98717.19;;;12.86;98.87
56604;BME280;42486;47.478;19.036;2023-03-14T16:31:10;98715.91;;;12.82;99.08
56604;BME280;42486;47.478;19.036;2023-03-14T16:34:14;98714.75;;;12.76;100.00
56604;BME280;42486;47.478;19.036;2023-03-14T16:37:17;98725.88;;;12.87;95.11
56604;BME280;42486;47.478;19.036;2023-03-14T16:40:22;98725.53;;;12.90;95.38
56604;BME280;42486;47.478;19.036;2023-03-14T16:43:26;98728.31;;;12.96;94.29
56604;BME280;42486;47.478;19.036;2023-03-14T16:46:29;98744.69;;;12.98;93.55
56604;BME280;42486;47.478;19.036;2023-03-14T16:49:33;98765.47;;;13.00;93.85
56604;BME280;42486;47.478;19.036;2023-03-14T16:52:37;98767.94;;;13.02;93.81